createdAt,value
2022-09-12T00:00:15.867Z,97771.56
2022-09-12T00:02:23.955Z,97778.72
2022-09-12T00:04:31.694Z,97777.13
2022-09-12T00:06:40.539Z,97772.88
2022-09-12T00:08:50.867Z,97775.00
2022-09-12T00:10:58.666Z,97773.50
2022-09-12T00:13:06.746Z,97772.53
2022-09-12T00:15:15.323Z,97773.81
2022-09-12T00:17:23.306Z,97766.56
2022-09-12T00:19:32.267Z,97757.41
2022-09-12T00:21:43.776Z,97765.53
2022-09-12T00:23:54.711Z,97763.28
2022-09-12T00:26:05.204Z,97767.41
2022-09-12T00:28:13.485Z,97764.34
2022-09-12T00:30:21.449Z,97767.53
2022-09-12T00:32:29.310Z,97766.16
2022-09-12T00:34:39.023Z,97763.81
2022-09-12T00:36:47.777Z,97759.44
2022-09-12T00:38:58.489Z,97759.66
2022-09-12T00:41:06.253Z,97763.06
2022-09-12T00:43:16.992Z,97754.22
2022-09-12T00:45:30.773Z,97758.16
2022-09-12T00:47:47.433Z,97756.59
2022-09-12T00:50:01.111Z,97746.34
2022-09-12T00:52:13.982Z,97750.94
2022-09-12T00:54:30.323Z,97746.13
2022-09-12T00:56:39.798Z,97742.09
2022-09-12T00:58:54.099Z,97740.59
2022-09-12T01:01:02.022Z,97733.56
2022-09-12T01:03:14.782Z,97736.97
2022-09-12T01:05:23.559Z,97733.34
2022-09-12T01:07:31.708Z,97736.44
2022-09-12T01:09:43.971Z,97722.91
2022-09-12T01:11:53.440Z,97731.97
2022-09-12T01:14:02.354Z,97719.81
2022-09-12T01:16:12.441Z,97723.47
2022-09-12T01:18:26.210Z,97723.78
2022-09-12T01:21:01.207Z,97718.84
2022-09-12T01:23:46.844Z,97723.56
2022-09-12T01:26:12.384Z,97720.91
2022-09-12T01:28:39.187Z,97713.03
2022-09-12T01:30:52.715Z,97712.25
2022-09-12T01:33:19.961Z,97713.63
2022-09-12T01:35:36.127Z,97707.69
2022-09-12T01:37:49.044Z,97710.00
2022-09-12T01:40:06.212Z,97704.25
2022-09-12T01:42:22.326Z,97706.94
2022-09-12T01:44:39.999Z,97706.50
2022-09-12T01:46:57.823Z,97709.91
2022-09-12T01:49:15.304Z,97702.13
2022-09-12T01:51:31.427Z,97704.81
2022-09-12T01:53:45.285Z,97701.81
2022-09-12T01:55:58.793Z,97697.66
2022-09-12T01:58:10.582Z,97700.31
2022-09-12T02:00:19.111Z,97703.31
2022-09-12T02:02:36.228Z,97695.63
2022-09-12T02:04:51.642Z,97688.72
2022-09-12T02:07:05.861Z,97688.59
2022-09-12T02:09:20.957Z,97684.25
2022-09-12T02:11:28.994Z,97686.25
2022-09-12T02:13:41.117Z,97686.81
2022-09-12T02:15:53.429Z,97681.16
2022-09-12T02:18:07.667Z,97684.88
2022-09-12T02:20:37.496Z,97680.53
2022-09-12T02:22:51.154Z,97671.03
2022-09-12T02:25:02.521Z,97668.69
2022-09-12T02:27:16.921Z,97664.75
2022-09-12T02:29:24.821Z,97674.63
2022-09-12T02:31:40.733Z,97675.28
2022-09-12T02:33:59.576Z,97669.84
2022-09-12T02:36:15.788Z,97673.28
2022-09-12T02:38:30.433Z,97665.91
2022-09-12T02:40:39.740Z,97668.47
2022-09-12T02:42:47.656Z,97676.44
2022-09-12T02:44:59.161Z,97665.03
2022-09-12T02:47:11.525Z,97663.88
2022-09-12T02:49:22.185Z,97662.59
2022-09-12T02:51:30.614Z,97658.84
2022-09-12T02:53:39.384Z,97664.94
2022-09-12T02:55:47.235Z,97659.50
2022-09-12T02:57:55.336Z,97660.00
2022-09-12T03:00:04.892Z,97660.00
2022-09-12T03:02:29.293Z,97665.44
2022-09-12T03:05:03.067Z,97653.47
2022-09-12T03:07:18.966Z,97653.00
2022-09-12T03:09:36.163Z,97657.81
2022-09-12T03:12:00.080Z,97646.41
2022-09-12T03:14:22.821Z,97651.84
2022-09-12T03:16:39.789Z,97648.75
2022-09-12T03:18:58.672Z,97655.34
2022-09-12T03:21:16.916Z,97657.47
2022-09-12T03:23:32.385Z,97664.47
2022-09-12T03:25:46.836Z,97655.69
2022-09-12T03:27:59.809Z,97663.91
2022-09-12T03:30:11.370Z,97671.34
2022-09-12T03:32:19.423Z,97671.34
2022-09-12T03:34:29.698Z,97670.91
2022-09-12T03:36:41.302Z,97668.47
2022-09-12T03:38:49.134Z,97661.84
2022-09-12T03:40:56.959Z,97670.25
2022-09-12T03:43:04.824Z,97673.25
2022-09-12T03:45:13.983Z,97662.50
2022-09-12T03:47:21.854Z,97658.63
2022-09-12T03:49:29.676Z,97655.56
2022-09-12T03:51:40.662Z,97659.84
2022-09-12T03:53:48.540Z,97655.25
2022-09-12T03:55:56.268Z,97662.63
2022-09-12T03:58:03.996Z,97658.88
2022-09-12T04:00:16.384Z,97659.16
2022-09-12T04:02:27.007Z,97659.69
2022-09-12T04:04:36.733Z,97658.84
2022-09-12T04:06:47.542Z,97664.59
2022-09-12T04:08:57.282Z,97663.50
2022-09-12T04:11:08.768Z,97660.00
2022-09-12T04:13:16.924Z,97656.66
2022-09-12T04:15:24.739Z,97656.78
2022-09-12T04:17:32.441Z,97659.97
2022-09-12T04:19:40.622Z,97663.69
2022-09-12T04:21:50.996Z,97656.88
2022-09-12T04:23:58.715Z,97653.44
2022-09-12T04:26:08.396Z,97655.91
2022-09-12T04:28:16.036Z,97652.13
2022-09-12T04:30:23.949Z,97660.13
2022-09-12T04:32:33.512Z,97655.13
2022-09-12T04:34:41.362Z,97663.69
2022-09-12T04:36:51.698Z,97657.50
2022-09-12T04:39:00.435Z,97651.22
2022-09-12T04:41:14.593Z,97652.72
2022-09-12T04:43:22.360Z,97658.16
2022-09-12T04:45:30.171Z,97652.59
2022-09-12T04:47:38.276Z,97655.66
2022-09-12T04:49:46.015Z,97653.03
2022-09-12T04:51:57.161Z,97654.72
2022-09-12T04:54:07.399Z,97654.09
2022-09-12T04:56:16.404Z,97659.78
2022-09-12T04:58:24.080Z,97659.16
2022-09-12T05:00:33.045Z,97662.97
2022-09-12T05:02:40.809Z,97663.06
2022-09-12T05:04:49.482Z,97656.81
2022-09-12T05:07:00.036Z,97657.94
2022-09-12T05:09:11.359Z,97665.63
2022-09-12T05:11:24.791Z,97664.78
2022-09-12T05:13:37.339Z,97659.25
2022-09-12T05:15:45.115Z,97653.91
2022-09-12T05:17:53.419Z,97658.44
2022-09-12T05:20:01.812Z,97658.88
2022-09-12T05:22:12.161Z,97659.19
2022-09-12T05:24:20.130Z,97659.50
2022-09-12T05:26:27.942Z,97670.91
2022-09-12T05:28:38.492Z,97666.97
2022-09-12T05:30:46.260Z,97673.63
2022-09-12T05:32:53.967Z,97668.94
2022-09-12T05:35:02.313Z,97674.34
2022-09-12T05:37:13.875Z,97681.16
2022-09-12T05:39:22.227Z,97675.75
2022-09-12T05:41:33.582Z,97686.91
2022-09-12T05:43:43.634Z,97687.84
2022-09-12T05:45:51.386Z,97685.03
2022-09-12T05:47:59.205Z,97691.41
2022-09-12T05:50:10.927Z,97690.53
2022-09-12T05:52:21.838Z,97689.16
2022-09-12T05:54:31.768Z,97688.19
2022-09-12T05:56:43.375Z,97692.19
2022-09-12T05:58:56.350Z,97694.84
2022-09-12T06:01:12.740Z,97694.94
2022-09-12T06:03:20.486Z,97695.59
2022-09-12T06:05:28.554Z,97699.63
2022-09-12T06:07:39.185Z,97694.13
2022-09-12T06:09:47.051Z,97696.22
2022-09-12T06:11:56.226Z,97696.28
2022-09-12T06:14:04.616Z,97701.72
2022-09-12T06:16:16.445Z,97708.88
2022-09-12T06:18:24.324Z,97743.56
2022-09-12T06:20:35.737Z,97758.31
2022-09-12T06:22:46.126Z,97754.03
2022-09-12T06:24:57.821Z,97776.78
2022-09-12T06:27:05.944Z,97790.66
2022-09-12T06:29:14.601Z,97800.84
2022-09-12T06:31:25.251Z,97775.66
2022-09-12T06:33:34.056Z,97762.41
2022-09-12T06:35:42.235Z,97761.38
2022-09-12T06:37:53.134Z,97784.03
2022-09-12T06:40:02.032Z,97798.53
2022-09-12T06:42:10.297Z,97829.59
2022-09-12T06:44:21.039Z,97848.19
2022-09-12T06:46:31.055Z,97862.75
2022-09-12T06:48:41.954Z,97873.38
2022-09-12T06:50:58.983Z,97840.09
2022-09-12T06:53:09.797Z,97832.97
2022-09-12T06:55:20.973Z,97853.13
2022-09-12T06:57:31.637Z,97880.13
2022-09-12T06:59:39.854Z,97892.03
2022-09-12T07:01:47.578Z,97884.66
2022-09-12T07:03:57.174Z,97861.59
2022-09-12T07:06:09.886Z,97829.00
2022-09-12T07:08:20.519Z,97836.72
2022-09-12T07:10:31.042Z,97845.63
2022-09-12T07:12:39.336Z,97867.75
2022-09-12T07:14:47.280Z,97884.44
2022-09-12T07:16:55.141Z,97884.47
2022-09-12T07:19:04.854Z,97878.97
2022-09-12T07:21:16.122Z,97871.53
2022-09-12T07:23:26.511Z,97841.53
2022-09-12T07:25:34.417Z,97855.78
2022-09-12T07:27:44.751Z,97839.53
2022-09-12T07:29:55.121Z,97828.44
2022-09-12T07:32:02.997Z,97824.00
2022-09-12T07:34:10.921Z,97812.63
2022-09-12T07:36:20.807Z,97787.91
2022-09-12T07:38:32.272Z,97741.19
2022-09-12T07:40:40.735Z,97729.56
2022-09-12T07:42:48.657Z,97753.41
2022-09-12T07:44:56.458Z,97756.63
2022-09-12T07:47:04.745Z,97750.75
2022-09-12T07:49:15.211Z,97744.56
2022-09-12T07:51:23.928Z,97748.38
2022-09-12T07:53:38.863Z,97755.53
2022-09-12T07:55:46.571Z,97749.28
2022-09-12T07:57:55.619Z,97751.50
2022-09-12T08:00:03.995Z,97749.44
2022-09-12T08:02:20.378Z,97745.63
2022-09-12T08:04:28.269Z,97751.66
2022-09-12T08:06:37.252Z,97759.97
2022-09-12T08:08:48.148Z,97763.19
2022-09-12T08:11:00.596Z,97755.84
2022-09-12T08:13:10.842Z,97753.03
2022-09-12T08:15:20.174Z,97753.06
2022-09-12T08:17:29.043Z,97753.94
2022-09-12T08:19:37.027Z,97743.78
2022-09-12T08:21:45.204Z,97741.13
2022-09-12T08:23:59.150Z,97746.63
2022-09-12T08:26:08.839Z,97740.19
2022-09-12T08:28:18.768Z,97741.66
2022-09-12T08:30:26.787Z,97739.91
2022-09-12T08:32:34.969Z,97739.25
2022-09-12T08:34:43.473Z,97744.63
2022-09-12T08:36:54.450Z,97746.91
2022-09-12T08:39:07.132Z,97747.06
2022-09-12T08:41:25.100Z,97736.81
2022-09-12T08:43:51.024Z,97745.00
2022-09-12T08:46:09.799Z,97738.56
2022-09-12T08:48:17.980Z,97739.25
2022-09-12T08:50:28.253Z,97737.41
2022-09-12T08:52:43.503Z,97736.78
2022-09-12T08:54:55.113Z,97740.63
2022-09-12T08:57:07.309Z,97741.19
2022-09-12T08:59:15.481Z,97737.22
2022-09-12T09:01:33.640Z,97732.16
2022-09-12T09:03:51.037Z,97730.63
2022-09-12T09:06:07.451Z,97725.22
2022-09-12T09:08:32.858Z,97725.78
2022-09-12T09:10:53.082Z,97724.84
2022-09-12T09:13:07.046Z,97728.72
2022-09-12T09:15:33.031Z,97727.00
2022-09-12T09:17:44.925Z,97731.66
2022-09-12T09:19:56.797Z,97723.38
2022-09-12T09:22:09.415Z,97720.09
2022-09-12T09:24:22.327Z,97725.69
2022-09-12T09:26:43.540Z,97745.69
2022-09-12T09:28:54.248Z,97766.63
2022-09-12T09:31:03.949Z,97786.13
2022-09-12T09:33:21.367Z,97795.19
2022-09-12T09:35:42.164Z,97804.22
2022-09-12T09:38:03.210Z,97792.59
2022-09-12T09:40:24.368Z,97791.34
2022-09-12T09:42:47.925Z,97821.53
2022-09-12T09:44:58.324Z,97824.34
2022-09-12T09:47:06.507Z,97824.06
2022-09-12T09:49:17.276Z,97812.63
2022-09-12T09:51:33.572Z,97816.91
2022-09-12T09:53:48.593Z,97828.84
2022-09-12T09:55:56.822Z,97831.28
2022-09-12T09:58:07.471Z,97820.59
2022-09-12T10:00:27.798Z,97815.66
2022-09-12T10:02:38.386Z,97829.38
2022-09-12T10:04:58.166Z,97812.94
2022-09-12T10:07:09.145Z,97813.56
2022-09-12T10:09:28.851Z,97813.72
2022-09-12T10:11:37.162Z,97820.22
2022-09-12T10:14:00.834Z,97802.84
2022-09-12T10:16:19.486Z,97796.03
2022-09-12T10:18:40.824Z,97794.72
2022-09-12T10:20:51.142Z,97774.06
2022-09-12T10:22:59.335Z,97786.13
2022-09-12T10:25:15.387Z,97764.88
2022-09-12T10:27:26.302Z,97770.78
2022-09-12T10:29:47.935Z,97778.19
2022-09-12T10:31:57.864Z,97778.66
2022-09-12T10:34:06.107Z,97769.47
2022-09-12T10:36:14.464Z,97787.75
2022-09-12T10:38:28.591Z,97787.16
2022-09-12T10:40:45.823Z,97792.94
2022-09-12T10:42:55.394Z,97791.94
2022-09-12T10:45:06.842Z,97776.28
2022-09-12T10:47:26.326Z,97787.59
2022-09-12T10:49:38.260Z,97791.44
2022-09-12T10:51:46.095Z,97791.81
2022-09-12T10:53:55.023Z,97771.81
2022-09-12T10:56:09.285Z,97756.72
2022-09-12T10:58:35.304Z,97754.19
2022-09-12T11:00:55.397Z,97737.81
2022-09-12T11:03:13.456Z,97730.13
2022-09-12T11:05:37.493Z,97728.50
2022-09-12T11:07:49.132Z,97726.44
2022-09-12T11:10:06.108Z,97728.41
2022-09-12T11:12:24.117Z,97718.59
2022-09-12T11:14:45.121Z,97712.13
2022-09-12T11:17:07.055Z,97716.06
2022-09-12T11:19:49.996Z,97710.91
2022-09-12T11:22:22.371Z,97711.22
2022-09-12T11:24:44.813Z,97716.78
2022-09-12T11:27:08.145Z,97711.66
2022-09-12T11:29:29.717Z,97704.19
2022-09-12T11:31:54.975Z,97704.41
2022-09-12T11:34:11.361Z,97686.06
2022-09-12T11:36:31.273Z,97687.75
2022-09-12T11:38:59.018Z,97691.94
2022-09-12T11:41:10.188Z,97688.38
2022-09-12T11:43:27.960Z,97687.00
2022-09-12T11:45:43.193Z,97681.38
2022-09-12T11:47:55.955Z,97684.69
2022-09-12T11:50:18.657Z,97673.22
2022-09-12T11:52:27.480Z,97692.00
2022-09-12T11:54:43.256Z,97701.81
2022-09-12T11:56:56.226Z,97714.19
2022-09-12T11:59:11.634Z,97721.03
2022-09-12T12:01:25.525Z,97731.72
2022-09-12T12:03:40.165Z,97706.94
2022-09-12T12:05:56.076Z,97699.69
2022-09-12T12:08:08.350Z,97721.16
2022-09-12T12:10:28.121Z,97710.06
2022-09-12T12:12:36.297Z,97697.81
2022-09-12T12:14:47.522Z,97700.03
2022-09-12T12:16:55.676Z,97696.28
2022-09-12T12:19:08.778Z,97695.72
2022-09-12T12:21:43.106Z,97699.59
2022-09-12T12:24:14.188Z,97697.72
2022-09-12T12:26:55.439Z,97703.88
2022-09-12T12:29:03.596Z,97707.00
2022-09-12T12:31:12.633Z,97697.06
2022-09-12T12:33:50.293Z,97704.28
2022-09-12T12:36:07.273Z,97694.91
2022-09-12T12:38:34.153Z,97696.34
2022-09-12T12:40:42.015Z,97696.56
2022-09-12T12:43:06.249Z,97684.91
2022-09-12T12:45:43.727Z,97688.84
2022-09-12T12:47:56.474Z,97680.28
2022-09-12T12:50:07.837Z,97679.38
2022-09-12T12:52:20.622Z,97673.09
2022-09-12T12:54:57.002Z,97660.53
2022-09-12T12:57:07.972Z,97669.88
2022-09-12T12:59:20.792Z,97660.78
2022-09-12T13:01:29.369Z,97661.97
2022-09-12T13:03:38.276Z,97668.44
2022-09-12T13:05:49.966Z,97656.50
2022-09-12T13:08:01.146Z,97659.75
2022-09-12T13:10:24.033Z,97653.47
2022-09-12T13:12:36.744Z,97654.13
2022-09-12T13:14:56.040Z,97654.50
2022-09-12T13:17:07.775Z,97647.34
2022-09-12T13:19:19.374Z,97644.59
2022-09-12T13:21:27.352Z,97647.75
2022-09-12T13:23:35.686Z,97646.09
2022-09-12T13:25:56.101Z,97648.38
2022-09-12T13:28:07.052Z,97645.09
2022-09-12T13:30:18.818Z,97647.53
2022-09-12T13:32:27.325Z,97642.50
2022-09-12T13:34:39.172Z,97639.53
2022-09-12T13:37:21.885Z,97631.50
2022-09-12T13:39:30.819Z,97626.22
2022-09-12T13:42:05.616Z,97629.53
2022-09-12T13:44:18.288Z,97631.38
2022-09-12T13:46:35.749Z,97629.13
2022-09-12T13:48:44.105Z,97625.66
2022-09-12T13:50:55.747Z,97628.78
2022-09-12T13:53:07.097Z,97611.28
2022-09-12T13:55:30.211Z,97611.72
2022-09-12T13:57:42.406Z,97615.31
2022-09-12T13:59:50.317Z,97608.19
2022-09-12T14:01:58.399Z,97604.75
2022-09-12T14:04:30.266Z,97599.97
2022-09-12T14:06:50.510Z,97617.91
2022-09-12T14:09:01.610Z,97610.16
2022-09-12T14:11:11.776Z,97590.56
2022-09-12T14:13:24.661Z,97594.88
2022-09-12T14:15:35.657Z,97590.41
2022-09-12T14:17:43.970Z,97593.75
2022-09-12T14:19:52.715Z,97593.66
2022-09-12T14:22:02.270Z,97585.22
2022-09-12T14:24:12.601Z,97590.59
2022-09-12T14:26:22.687Z,97590.56
2022-09-12T14:28:34.421Z,97591.69
2022-09-12T14:30:42.732Z,97584.13
2022-09-12T14:33:06.834Z,97578.31
2022-09-12T14:35:24.227Z,97585.03
2022-09-12T14:37:32.528Z,97573.69
2022-09-12T14:39:45.706Z,97563.84
2022-09-12T14:42:03.829Z,97568.84
2022-09-12T14:44:20.869Z,97566.97
2022-09-12T14:46:33.254Z,97569.56
2022-09-12T14:48:50.159Z,97574.72
2022-09-12T14:50:58.051Z,97561.63
2022-09-12T14:53:09.726Z,97561.81
2022-09-12T14:55:30.608Z,97566.13
2022-09-12T14:57:51.128Z,97561.53
2022-09-12T15:00:46.148Z,97556.19
2022-09-12T15:02:56.042Z,97553.38
2022-09-12T15:05:23.509Z,97551.50
2022-09-12T15:07:37.675Z,97555.53
2022-09-12T15:09:47.363Z,97548.34
2022-09-12T15:11:55.408Z,97544.59
2022-09-12T15:14:09.986Z,97542.16
2022-09-12T15:16:21.005Z,97541.22
2022-09-12T15:18:31.911Z,97545.94
2022-09-12T15:20:41.232Z,97537.19
2022-09-12T15:22:48.947Z,97543.84
2022-09-12T15:24:57.621Z,97537.09
2022-09-12T15:27:05.363Z,97542.63
2022-09-12T15:29:13.098Z,97531.31
2022-09-12T15:31:28.896Z,97537.59
2022-09-12T15:33:36.888Z,97533.75
2022-09-12T15:35:44.718Z,97529.16
2022-09-12T15:37:54.224Z,97519.34
2022-09-12T15:40:02.026Z,97513.91
2022-09-12T15:42:11.707Z,97526.81
2022-09-12T15:44:21.282Z,97526.53
2022-09-12T15:46:31.645Z,97529.63
2022-09-12T15:48:39.387Z,97515.84
2022-09-12T15:50:47.504Z,97512.66
2022-09-12T15:52:55.333Z,97508.75
2022-09-12T15:55:03.115Z,97513.97
2022-09-12T15:57:11.018Z,97515.56
2022-09-12T15:59:18.852Z,97517.09
2022-09-12T16:01:27.097Z,97511.19
2022-09-12T16:03:37.823Z,97504.25
2022-09-12T16:05:50.287Z,97506.59
2022-09-12T16:07:58.459Z,97501.53
2022-09-12T16:10:07.035Z,97502.75
2022-09-12T16:12:14.871Z,97501.13
2022-09-12T16:14:22.909Z,97488.59
2022-09-12T16:16:31.286Z,97492.88
2022-09-12T16:18:45.356Z,97496.34
2022-09-12T16:20:57.765Z,97480.16
2022-09-12T16:23:05.651Z,97487.44
2022-09-12T16:25:13.485Z,97480.16
2022-09-12T16:27:21.730Z,97479.66
2022-09-12T16:29:29.483Z,97465.16
2022-09-12T16:31:38.460Z,97463.00
2022-09-12T16:33:49.125Z,97475.44
2022-09-12T16:36:03.464Z,97468.41
2022-09-12T16:38:13.121Z,97463.72
2022-09-12T16:40:21.743Z,97462.38
2022-09-12T16:42:29.451Z,97461.75
2022-09-12T16:44:38.047Z,97456.72
2022-09-12T16:46:46.265Z,97460.47
2022-09-12T16:48:58.669Z,97465.63
2022-09-12T16:51:08.641Z,97454.69
2022-09-12T16:53:16.410Z,97458.66
2022-09-12T16:55:25.584Z,97448.25
2022-09-12T16:57:33.398Z,97452.38
2022-09-12T16:59:41.297Z,97455.16
2022-09-12T17:01:52.315Z,97451.09
2022-09-12T17:04:02.761Z,97444.72
2022-09-12T17:06:12.672Z,97441.19
2022-09-12T17:08:23.019Z,97442.72
2022-09-12T17:10:30.947Z,97451.69
2022-09-12T17:12:38.688Z,97439.25
2022-09-12T17:14:48.043Z,97436.56
2022-09-12T17:16:56.052Z,97441.16
2022-09-12T17:19:07.669Z,97447.97
2022-09-12T17:21:15.778Z,97445.91
2022-09-12T17:23:23.534Z,97440.50
2022-09-12T17:25:31.536Z,97437.66
2022-09-12T17:27:39.324Z,97429.25
2022-09-12T17:29:47.096Z,97431.28
2022-09-12T17:31:55.156Z,97419.66
2022-09-12T17:34:06.567Z,97420.63
2022-09-12T17:36:16.955Z,97419.00
2022-09-12T17:38:25.431Z,97418.19
2022-09-12T17:40:58.055Z,97413.78
2022-09-12T17:43:02.077Z,97414.47
2022-09-12T17:45:17.716Z,97413.97
2022-09-12T17:47:26.400Z,97413.97
2022-09-12T17:49:36.829Z,97410.59
2022-09-12T17:51:46.293Z,97424.41
2022-09-12T17:54:00.201Z,97425.91
2022-09-12T17:56:11.930Z,97420.31
2022-09-12T17:58:19.782Z,97422.34
2022-09-12T18:00:50.341Z,97433.81
2022-09-12T18:02:55.599Z,97424.53
2022-09-12T18:05:06.589Z,97431.41
2022-09-12T18:07:14.978Z,97423.97
2022-09-12T18:09:25.183Z,97423.47
2022-09-12T18:11:32.953Z,97420.94
2022-09-12T18:13:43.458Z,97424.41
2022-09-12T18:15:52.385Z,97411.09
2022-09-12T18:18:00.451Z,97421.34
2022-09-12T18:20:12.424Z,97414.41
2022-09-12T18:22:20.305Z,97408.31
2022-09-12T18:24:29.572Z,97413.56
2022-09-12T18:26:38.249Z,97406.13
2022-09-12T18:28:47.863Z,97411.34
2022-09-12T18:30:56.113Z,97411.72
2022-09-12T18:33:03.967Z,97415.56
2022-09-12T18:35:15.133Z,97414.97
2022-09-12T18:37:22.903Z,97409.09
2022-09-12T18:39:30.660Z,97417.13
2022-09-12T18:41:39.111Z,97419.97
2022-09-12T18:43:47.543Z,97419.47
2022-09-12T18:45:55.408Z,97423.88
2022-09-12T18:48:03.617Z,97430.94
2022-09-12T18:50:16.234Z,97437.66
2022-09-12T18:52:24.196Z,97431.59
2022-09-12T18:54:33.383Z,97428.84
2022-09-12T18:56:44.145Z,97420.22
2022-09-12T18:58:55.597Z,97420.50
2022-09-12T19:01:03.594Z,97419.47
2022-09-12T19:03:11.524Z,97423.28
2022-09-12T19:05:22.128Z,97420.13
2022-09-12T19:07:31.318Z,97419.63
2022-09-12T19:09:39.280Z,97413.50
2022-09-12T19:11:52.689Z,97418.34
2022-09-12T19:14:00.636Z,97415.75
2022-09-12T19:16:11.910Z,97419.16
2022-09-12T19:18:19.756Z,97420.06
2022-09-12T19:20:30.134Z,97420.84
2022-09-12T19:22:37.960Z,97424.28
2022-09-12T19:24:45.730Z,97418.97
2022-09-12T19:26:53.702Z,97422.16
2022-09-12T19:29:03.033Z,97420.06
2022-09-12T19:31:12.890Z,97423.06
2022-09-12T19:33:21.013Z,97424.19
2022-09-12T19:35:33.734Z,97422.13
2022-09-12T19:37:41.591Z,97423.13
2022-09-12T19:39:50.108Z,97417.66
2022-09-12T19:41:58.099Z,97413.28
2022-09-12T19:44:06.584Z,97420.81
2022-09-12T19:46:19.038Z,97420.03
2022-09-12T19:48:27.332Z,97414.56
2022-09-12T19:50:37.753Z,97421.16
2022-09-12T19:52:45.482Z,97422.34
2022-09-12T19:54:53.741Z,97418.81
2022-09-12T19:57:01.437Z,97414.28
2022-09-12T19:59:09.586Z,97414.28
2022-09-12T20:01:19.929Z,97411.41
2022-09-12T20:03:27.703Z,97412.47
2022-09-12T20:05:42.500Z,97403.00
2022-09-12T20:07:50.815Z,97406.88
2022-09-12T20:09:58.642Z,97412.88
2022-09-12T20:12:07.000Z,97419.09
2022-09-12T20:14:15.026Z,97412.72
2022-09-12T20:16:42.815Z,97418.63
2022-09-12T20:18:58.169Z,97417.84
2022-09-12T20:21:19.480Z,97417.25
2022-09-12T20:23:30.349Z,97416.69
2022-09-12T20:25:38.429Z,97417.44
2022-09-12T20:27:46.352Z,97420.13
2022-09-12T20:29:54.149Z,97415.59
2022-09-12T20:32:02.188Z,97416.44
2022-09-12T20:34:10.761Z,97416.28
2022-09-12T20:36:23.753Z,97418.44
2022-09-12T20:38:34.113Z,97407.56
2022-09-12T20:40:41.860Z,97408.41
2022-09-12T20:42:49.545Z,97402.50
2022-09-12T20:44:57.239Z,97392.88
2022-09-12T20:47:05.043Z,97386.22
2022-09-12T20:49:13.144Z,97390.44
2022-09-12T20:51:26.701Z,97382.81
2022-09-12T20:53:35.362Z,97375.16
2022-09-12T20:55:43.569Z,97376.09
2022-09-12T20:57:52.539Z,97383.97
2022-09-12T21:00:00.282Z,97373.84
2022-09-12T21:02:08.226Z,97378.88
2022-09-12T21:04:18.556Z,97388.56
2022-09-12T21:06:30.100Z,97377.97
2022-09-12T21:08:39.529Z,97385.31
2022-09-12T21:10:47.631Z,97399.28
2022-09-12T21:12:55.670Z,97394.97
2022-09-12T21:15:03.556Z,97392.56
2022-09-12T21:17:11.323Z,97392.16
2022-09-12T21:19:19.281Z,97375.13
2022-09-12T21:21:30.009Z,97377.97
2022-09-12T21:23:38.164Z,97380.09
2022-09-12T21:25:52.395Z,97384.19
2022-09-12T21:28:01.315Z,97387.41
2022-09-12T21:30:10.331Z,97383.91
2022-09-12T21:32:18.078Z,97389.16
2022-09-12T21:34:25.911Z,97398.34
2022-09-12T21:36:36.260Z,97398.63
2022-09-12T21:38:44.082Z,97399.34
2022-09-12T21:40:51.901Z,97395.13
2022-09-12T21:42:59.680Z,97388.56
2022-09-12T21:45:09.055Z,97392.25
2022-09-12T21:47:16.771Z,97403.28
2022-09-12T21:49:24.444Z,97401.00
2022-09-12T21:51:32.261Z,97398.50
2022-09-12T21:53:43.161Z,97395.66
2022-09-12T21:55:52.058Z,97389.59
2022-09-12T21:58:00.129Z,97391.75
2022-09-12T22:00:09.838Z,97388.63
2022-09-12T22:02:17.587Z,97383.56
2022-09-12T22:04:26.384Z,97379.56
2022-09-12T22:06:34.927Z,97381.56
2022-09-12T22:08:45.325Z,97379.06
2022-09-12T22:10:53.046Z,97376.25
2022-09-12T22:13:01.022Z,97378.78
2022-09-12T22:15:36.472Z,97371.00
2022-09-12T22:17:36.972Z,97376.94
2022-09-12T22:19:44.733Z,97365.38
2022-09-12T22:22:04.919Z,97367.47
2022-09-12T22:24:27.727Z,97359.84
2022-09-12T22:26:43.534Z,97358.06
2022-09-12T22:28:51.946Z,97358.59
2022-09-12T22:31:00.130Z,97354.81
2022-09-12T22:33:08.016Z,97346.59
2022-09-12T22:35:17.531Z,97339.72
2022-09-12T22:37:28.668Z,97339.97
2022-09-12T22:39:39.234Z,97337.72
2022-09-12T22:41:47.320Z,97332.66
2022-09-12T22:43:55.174Z,97331.41
2022-09-12T22:46:03.128Z,97335.34
2022-09-12T22:48:10.839Z,97321.63
2022-09-12T22:50:18.924Z,97317.53
2022-09-12T22:52:27.480Z,97312.47
2022-09-12T22:54:38.037Z,97324.19
2022-09-12T22:56:46.635Z,97323.91
2022-09-12T22:59:02.049Z,97326.56
2022-09-12T23:01:10.880Z,97323.91
2022-09-12T23:03:19.732Z,97325.47
2022-09-12T23:05:28.081Z,97329.25
2022-09-12T23:07:52.411Z,97334.91
2022-09-12T23:10:02.991Z,97338.28
2022-09-12T23:12:10.852Z,97343.09
2022-09-12T23:14:19.227Z,97340.97
2022-09-12T23:16:31.256Z,97342.50
2022-09-12T23:18:39.347Z,97342.78
2022-09-12T23:20:47.324Z,97339.25
2022-09-12T23:22:54.960Z,97329.81
2022-09-12T23:25:06.118Z,97328.41
2022-09-12T23:27:13.778Z,97324.03
2022-09-12T23:29:21.446Z,97325.00
2022-09-12T23:31:32.565Z,97340.50
2022-09-12T23:33:40.535Z,97343.84
2022-09-12T23:35:48.250Z,97349.72
2022-09-12T23:37:55.955Z,97338.91
2022-09-12T23:40:07.467Z,97340.00
2022-09-12T23:42:15.178Z,97339.16
2022-09-12T23:44:23.013Z,97339.66
2022-09-12T23:46:30.950Z,97341.59
2022-09-12T23:48:38.756Z,97334.44
2022-09-12T23:50:47.226Z,97333.88
2022-09-12T23:52:55.018Z,97326.13
2022-09-12T23:55:02.707Z,97316.53
2022-09-12T23:57:13.392Z,97314.81
2022-09-12T23:59:21.271Z,97301.75
